sim
Sign-in with your pilot id or email,
or register
Callsign
Passwort

Schedule Details

Flight Number: RYR6303 (2)
Departure: Fuerteventura Airport (GCFV) at 19:20
Arrival: Barcelona El Prat Airport (LEBL) at 22:30
Route: Ryanair Passenger Schedule. Enter filed route here before submitting Pirep.

Weather Information
Getting current METAR information for GCFV 182030Z 36014KT 9999 FEW045 18/11 Q1019
Getting current METAR information for LEBL 182030Z 06020G31KT 030V100 9999 FEW030 16/09 Q1018 NOSIG

Schedule Frequency

Route Map